Time;durP1;ratioP1;P1;durP2;ratioP2;P2;SDS_P1;SDS_P2;PMS_P1;PMS_P2;Temp;Humidity;BMP_temperature;BMP_pressure;BME280_temperature;BME280_humidity;BME280_pressure;Samples;Min_cycle;Max_cycle;Signal;HPM_P1;HPM_P2
2021/03/23 00:00:22;;;;;;;82.13;37.70;;;-1.80;99.90;;;;;;5052478;28;20139;-76
2021/03/23 00:02:58;;;;;;;83.75;36.72;;;-1.80;99.90;;;;;;5052301;28;20108;-77
2021/03/23 00:05:25;;;;;;;94.18;39.72;;;-1.80;99.90;;;;;;5053521;28;20032;-77
2021/03/23 00:07:51;;;;;;;97.45;41.42;;;-1.80;99.90;;;;;;5052244;28;20059;-76
2021/03/23 00:10:23;;;;;;;101.13;41.42;;;-1.80;99.90;;;;;;5052013;28;20058;-76
2021/03/23 00:12:49;;;;;;;92.68;40.05;;;-1.80;99.90;;;;;;5053472;28;20017;-77
2021/03/23 00:15:15;;;;;;;102.97;43.10;;;-1.90;99.90;;;;;;5052733;28;20021;-77
2021/03/23 00:17:41;;;;;;;117.10;47.13;;;-1.90;99.90;;;;;;5053371;28;20131;-76
2021/03/23 00:20:10;;;;;;;122.22;52.92;;;-2.00;99.90;;;;;;5052910;28;20108;-76
2021/03/23 00:22:36;;;;;;;131.13;55.92;;;-1.90;99.90;;;;;;5051533;28;20021;-77
2021/03/23 00:25:04;;;;;;;130.50;57.15;;;-1.90;99.90;;;;;;5039268;28;20508;-76
2021/03/23 00:27:30;;;;;;;143.93;63.10;;;-1.90;99.90;;;;;;5053222;28;20021;-77
2021/03/23 00:29:55;;;;;;;137.90;61.45;;;-1.90;99.90;;;;;;5051435;28;20450;-77
2021/03/23 00:32:21;;;;;;;135.32;60.50;;;-1.90;99.90;;;;;;5052880;28;20033;-77
2021/03/23 00:34:47;;;;;;;203.25;90.38;;;-1.90;99.90;;;;;;5051735;28;20433;-77
2021/03/23 00:37:13;;;;;;;127.57;58.78;;;-2.00;99.90;;;;;;5053055;28;20064;-77
2021/03/23 00:39:39;;;;;;;115.80;49.63;;;-2.00;99.90;;;;;;5053305;28;20044;-77
2021/03/23 00:42:06;;;;;;;116.10;48.90;;;-1.90;99.90;;;;;;5052924;28;20048;-77
2021/03/23 00:44:33;;;;;;;113.10;46.88;;;-2.00;99.90;;;;;;5052865;28;20029;-77
2021/03/23 00:46:58;;;;;;;113.32;49.53;;;-2.00;99.90;;;;;;5051580;28;20017;-78
2021/03/23 00:49:24;;;;;;;122.22;48.53;;;-2.10;99.90;;;;;;5051800;28;20386;-76
2021/03/23 00:51:49;;;;;;;258.45;108.63;;;-2.10;99.90;;;;;;5052859;28;20028;-76
2021/03/23 00:54:15;;;;;;;142.85;66.00;;;-2.00;99.90;;;;;;5052861;28;20368;-77
2021/03/23 00:56:41;;;;;;;130.23;65.47;;;-2.10;99.90;;;;;;5051608;28;20485;-76
2021/03/23 00:59:06;;;;;;;140.55;54.80;;;-2.10;99.90;;;;;;5051404;28;20375;-76
2021/03/23 01:01:33;;;;;;;126.88;54.55;;;-2.00;99.90;;;;;;5051195;28;20032;-77
2021/03/23 01:03:59;;;;;;;125.45;55.75;;;-2.00;99.90;;;;;;5052669;28;20025;-77
2021/03/23 01:06:24;;;;;;;141.10;60.28;;;-2.00;99.90;;;;;;5052761;28;20084;-76
2021/03/23 01:08:50;;;;;;;128.52;61.03;;;-2.00;99.90;;;;;;5050788;28;20076;-76
2021/03/23 01:11:15;;;;;;;128.75;55.13;;;-2.10;99.90;;;;;;5052651;28;20027;-77
2021/03/23 01:13:41;;;;;;;130.30;58.67;;;-2.00;99.90;;;;;;5052662;28;20021;-77
2021/03/23 01:16:08;;;;;;;137.77;55.30;;;-2.00;99.90;;;;;;5051303;28;20025;-77
2021/03/23 01:18:36;;;;;;;137.82;54.92;;;-2.00;99.90;;;;;;5051316;28;20082;-76
2021/03/23 01:21:03;;;;;;;140.63;56.15;;;-2.00;99.90;;;;;;5051325;28;20033;-77
2021/03/23 01:23:29;;;;;;;141.77;61.45;;;-2.00;99.90;;;;;;5051287;28;20017;-76
2021/03/23 01:25:54;;;;;;;139.38;59.03;;;-2.00;99.90;;;;;;5052487;28;20021;-78
2021/03/23 01:28:20;;;;;;;141.85;61.22;;;-2.00;99.90;;;;;;5055088;28;20398;-77
2021/03/23 01:30:46;;;;;;;154.70;64.95;;;-2.00;99.90;;;;;;5054824;28;20047;-76
2021/03/23 01:33:11;;;;;;;136.07;60.92;;;-2.00;99.90;;;;;;5056377;28;20025;-77
2021/03/23 01:35:38;;;;;;;143.07;60.03;;;-2.00;99.90;;;;;;5056320;28;20020;-76
2021/03/23 01:38:04;;;;;;;144.13;64.50;;;-2.00;99.90;;;;;;5056294;28;20025;-76
2021/03/23 01:40:30;;;;;;;153.93;62.53;;;-2.00;99.90;;;;;;5054983;28;20032;-77
2021/03/23 01:43:00;;;;;;;143.77;62.92;;;-2.10;99.90;;;;;;5054931;28;20145;-77
2021/03/23 01:45:39;;;;;;;139.35;60.95;;;-2.10;99.90;;;;;;5056185;28;20026;-77
2021/03/23 01:48:30;;;;;;;148.15;62.83;;;-2.10;99.90;;;;;;5055918;28;20068;-76
2021/03/23 01:51:16;;;;;;;156.68;68.32;;;-2.00;99.90;;;;;;5053793;28;20056;-76
2021/03/23 01:53:46;;;;;;;143.82;64.60;;;-2.00;99.90;;;;;;5054549;28;20175;-76
2021/03/23 01:56:14;;;;;;;150.82;64.20;;;-2.00;99.90;;;;;;5055990;28;20022;-76
2021/03/23 01:58:47;;;;;;;154.52;69.47;;;-2.10;99.90;;;;;;5056103;28;20028;-77
2021/03/23 02:01:15;;;;;;;149.18;67.20;;;-2.10;99.90;;;;;;5054684;28;20036;-77
2021/03/23 02:03:41;;;;;;;158.25;75.07;;;-2.10;99.90;;;;;;5055866;28;20021;-77
2021/03/23 02:06:29;;;;;;;173.18;80.05;;;-2.10;99.90;;;;;;5055729;28;20027;-76
2021/03/23 02:08:55;;;;;;;146.95;65.78;;;-2.10;99.90;;;;;;5055695;28;20065;-76
2021/03/23 02:11:21;;;;;;;157.93;71.50;;;-2.10;99.90;;;;;;5054033;28;20107;-76
2021/03/23 02:13:48;;;;;;;143.85;65.05;;;-2.10;99.90;;;;;;5054345;28;20021;-76
2021/03/23 02:16:14;;;;;;;175.10;77.38;;;-2.10;99.90;;;;;;5054282;28;20017;-76
2021/03/23 02:18:39;;;;;;;163.18;71.00;;;-2.10;99.90;;;;;;5054137;28;20083;-77
2021/03/23 02:21:16;;;;;;;148.43;68.40;;;-2.10;99.90;;;;;;5053787;28;20478;-77
2021/03/23 02:23:43;;;;;;;149.85;72.20;;;-2.10;99.90;;;;;;5055602;28;20060;-77
2021/03/23 02:26:12;;;;;;;150.60;68.45;;;-2.20;99.90;;;;;;5054394;28;20028;-77
2021/03/23 02:29:03;;;;;;;148.32;65.53;;;-2.20;99.90;;;;;;5055233;28;20025;-77
2021/03/23 02:31:39;;;;;;;147.60;64.85;;;-2.20;99.90;;;;;;5054085;28;20021;-77
2021/03/23 02:34:10;;;;;;;158.70;64.55;;;-2.10;99.90;;;;;;5053802;28;20036;-77
2021/03/23 02:36:37;;;;;;;156.05;66.70;;;-2.10;99.90;;;;;;5055310;28;20490;-77
2021/03/23 02:39:07;;;;;;;141.05;65.93;;;-2.00;99.90;;;;;;5054516;28;20035;-77
2021/03/23 02:41:33;;;;;;;144.60;66.38;;;-2.00;99.90;;;;;;5053786;28;20025;-77
2021/03/23 02:43:59;;;;;;;141.35;64.75;;;-2.00;99.90;;;;;;5055034;28;20463;-76
2021/03/23 02:46:25;;;;;;;147.30;68.18;;;-2.00;99.90;;;;;;5055054;28;20024;-76
2021/03/23 02:48:50;;;;;;;144.93;65.70;;;-1.90;99.90;;;;;;5054772;28;20096;-77
2021/03/23 02:51:18;;;;;;;157.60;69.68;;;-2.00;99.90;;;;;;5052917;28;20531;-78
2021/03/23 02:53:47;;;;;;;148.07;66.57;;;-2.00;99.90;;;;;;5054926;28;20112;-76
2021/03/23 02:56:14;;;;;;;157.00;68.82;;;-2.00;99.90;;;;;;5053491;28;20093;-76
2021/03/23 02:58:39;;;;;;;163.05;73.57;;;-2.00;99.90;;;;;;5054877;28;20029;-77
2021/03/23 03:01:06;;;;;;;146.07;66.95;;;-2.00;99.90;;;;;;5053156;28;20029;-78
2021/03/23 03:03:33;;;;;;;143.60;66.18;;;-2.00;99.90;;;;;;5053431;28;20025;-76
2021/03/23 03:05:59;;;;;;;206.93;87.30;;;-2.00;99.90;;;;;;5053412;28;20021;-76
2021/03/23 03:08:25;;;;;;;497.83;198.23;;;-2.00;99.90;;;;;;5053248;28;20107;-76
2021/03/23 03:10:52;;;;;;;482.17;195.93;;;-2.00;99.90;;;;;;5053048;28;20104;-76
2021/03/23 03:13:23;;;;;;;501.73;192.10;;;-1.90;99.90;;;;;;5054474;28;20490;-78
2021/03/23 03:15:53;;;;;;;460.65;182.63;;;-1.90;99.90;;;;;;5054623;28;20098;-77
2021/03/23 03:18:20;;;;;;;437.50;157.88;;;-1.90;99.90;;;;;;5053194;28;20442;-76
2021/03/23 03:20:46;;;;;;;156.88;71.75;;;-1.80;99.90;;;;;;5054435;28;20056;-75
2021/03/23 03:23:12;;;;;;;169.48;71.88;;;-1.90;99.90;;;;;;5054403;28;20098;-77
2021/03/23 03:25:38;;;;;;;151.73;67.05;;;-1.90;99.90;;;;;;5052962;28;20021;-76
2021/03/23 03:28:07;;;;;;;186.82;81.57;;;-1.90;99.90;;;;;;5052975;28;20072;-78
2021/03/23 03:30:35;;;;;;;215.48;89.28;;;-1.90;99.90;;;;;;5052780;28;20111;-78
2021/03/23 03:33:01;;;;;;;198.30;85.18;;;-1.90;99.90;;;;;;5054192;28;20057;-77
2021/03/23 03:35:34;;;;;;;177.82;80.55;;;-1.90;99.90;;;;;;5054054;28;20111;-76
2021/03/23 03:38:00;;;;;;;374.85;147.07;;;-1.90;99.90;;;;;;5052782;28;20435;-76
2021/03/23 03:40:44;;;;;;;385.50;158.25;;;-1.90;99.90;;;;;;5053478;28;20021;-76
2021/03/23 03:43:12;;;;;;;273.02;107.55;;;-1.90;99.90;;;;;;5053846;28;20552;-76
2021/03/23 03:45:38;;;;;;;204.63;88.10;;;-1.90;99.90;;;;;;5052619;28;20017;-76
2021/03/23 03:48:04;;;;;;;166.65;74.10;;;-1.80;99.90;;;;;;5052578;28;20531;-76
2021/03/23 03:50:30;;;;;;;168.85;72.57;;;-1.80;99.90;;;;;;5052818;28;20033;-76
2021/03/23 03:52:57;;;;;;;158.98;67.10;;;-1.80;99.90;;;;;;5053518;28;20024;-76
2021/03/23 03:55:34;;;;;;;155.13;67.07;;;-1.80;99.90;;;;;;5052136;28;20039;-76
2021/03/23 03:58:00;;;;;;;157.05;68.82;;;-1.80;99.90;;;;;;5052463;28;20021;-77
2021/03/23 04:00:29;;;;;;;153.07;68.30;;;-1.80;99.90;;;;;;5052143;28;20375;-77
2021/03/23 04:02:54;;;;;;;154.90;63.67;;;-1.80;99.90;;;;;;5052291;28;20052;-77
2021/03/23 04:05:39;;;;;;;142.73;62.65;;;-1.80;99.90;;;;;;5053464;28;20063;-76
2021/03/23 04:08:06;;;;;;;141.98;60.63;;;-1.70;99.90;;;;;;5053410;28;20486;-76
2021/03/23 04:10:32;;;;;;;147.23;67.72;;;-1.80;99.90;;;;;;5051672;28;20037;-76
2021/03/23 04:12:59;;;;;;;144.60;63.10;;;-1.80;99.90;;;;;;5053326;28;20036;-77
2021/03/23 04:15:31;;;;;;;142.52;65.35;;;-1.80;99.90;;;;;;5053113;28;20053;-76
2021/03/23 04:17:57;;;;;;;142.80;67.60;;;-1.80;99.90;;;;;;5051883;28;20106;-77
2021/03/23 04:20:24;;;;;;;168.80;73.13;;;-1.70;99.90;;;;;;5051092;28;20496;-77
2021/03/23 04:22:50;;;;;;;186.63;81.90;;;-1.70;99.90;;;;;;5051513;28;20013;-77
2021/03/23 04:25:19;;;;;;;197.57;80.28;;;-1.70;99.90;;;;;;5053027;28;20021;-77
2021/03/23 04:27:45;;;;;;;221.80;89.78;;;-1.80;99.90;;;;;;5051696;28;20091;-77
2021/03/23 04:30:11;;;;;;;183.80;73.70;;;-1.80;99.90;;;;;;5052816;28;20426;-77
2021/03/23 04:32:37;;;;;;;150.07;66.10;;;-1.80;99.90;;;;;;5050649;28;20018;-78
2021/03/23 04:35:05;;;;;;;152.05;66.80;;;-1.80;99.90;;;;;;5052818;28;20025;-77
2021/03/23 04:37:33;;;;;;;149.02;67.30;;;-1.80;99.90;;;;;;5051606;28;20025;-77
2021/03/23 04:40:00;;;;;;;156.48;67.70;;;-1.80;99.90;;;;;;5052583;28;20029;-77
2021/03/23 04:42:25;;;;;;;170.68;77.68;;;-1.80;99.90;;;;;;5052633;28;20029;-77
2021/03/23 04:44:51;;;;;;;192.13;85.13;;;-1.80;99.90;;;;;;5052802;28;20078;-77
2021/03/23 04:47:17;;;;;;;185.85;81.22;;;-1.80;99.90;;;;;;5051091;28;20393;-77
2021/03/23 04:49:42;;;;;;;274.30;105.82;;;-1.80;99.90;;;;;;5051215;28;20071;-77
2021/03/23 04:52:08;;;;;;;230.48;98.00;;;-1.80;99.90;;;;;;5052819;28;20025;-77
2021/03/23 04:54:34;;;;;;;199.32;85.65;;;-1.80;99.90;;;;;;5051407;28;20033;-77
2021/03/23 04:56:59;;;;;;;165.35;81.90;;;-1.70;99.90;;;;;;5051990;28;20021;-77
2021/03/23 04:59:25;;;;;;;182.98;82.38;;;-1.70;99.90;;;;;;5052079;28;20467;-77
2021/03/23 05:01:51;;;;;;;172.38;82.28;;;-1.70;99.90;;;;;;5051931;28;20521;-77
2021/03/23 05:04:19;;;;;;;178.40;83.60;;;-1.70;99.90;;;;;;5052215;28;20028;-77
2021/03/23 05:06:44;;;;;;;157.25;75.63;;;-1.70;99.90;;;;;;5052201;28;20359;-77
2021/03/23 05:09:11;;;;;;;152.65;74.93;;;-1.80;99.90;;;;;;5049932;28;20045;-76
2021/03/23 05:11:37;;;;;;;159.35;73.15;;;-1.70;99.90;;;;;;5051196;28;20100;-77
2021/03/23 05:14:05;;;;;;;160.00;73.45;;;-1.70;99.90;;;;;;5051912;28;20124;-76
2021/03/23 05:16:31;;;;;;;174.20;74.78;;;-1.70;99.90;;;;;;5052568;28;20049;-77
2021/03/23 05:18:58;;;;;;;256.15;100.07;;;-1.70;99.90;;;;;;5052189;28;20035;-77
2021/03/23 05:21:23;;;;;;;263.38;107.18;;;-1.70;99.90;;;;;;5052224;28;20029;-77
2021/03/23 05:23:50;;;;;;;212.73;92.90;;;-1.60;99.90;;;;;;5052154;28;20031;-77
2021/03/23 05:26:15;;;;;;;229.45;94.43;;;-1.60;99.90;;;;;;5051962;28;20112;-77
2021/03/23 05:28:46;;;;;;;395.23;145.38;;;-1.50;99.90;;;;;;5049929;28;20120;-77
2021/03/23 05:31:13;;;;;;;537.97;209.93;;;-1.50;99.90;;;;;;5037483;28;20024;-77
2021/03/23 05:33:38;;;;;;;355.60;130.52;;;-1.50;99.90;;;;;;5050976;28;20394;-77
2021/03/23 05:36:04;;;;;;;446.05;148.65;;;-1.40;99.90;;;;;;5052244;28;20024;-77
2021/03/23 05:38:30;;;;;;;317.40;114.85;;;-1.40;99.90;;;;;;5052344;28;20053;-77
2021/03/23 05:41:03;;;;;;;250.88;96.82;;;-1.40;99.90;;;;;;5052207;28;20497;-77
2021/03/23 05:43:50;;;;;;;335.65;112.72;;;-1.40;99.90;;;;;;5052462;28;20032;-77
2021/03/23 05:46:19;;;;;;;398.80;129.43;;;-1.30;99.90;;;;;;5052381;28;20035;-77
2021/03/23 05:49:08;;;;;;;918.08;337.90;;;-1.30;99.90;;;;;;5049787;28;20551;-77
2021/03/23 05:51:37;;;;;;;367.67;124.25;;;-1.30;99.90;;;;;;5042431;28;20048;-76
2021/03/23 05:54:13;;;;;;;308.20;111.75;;;-1.30;99.90;;;;;;5050761;28;20131;-76
2021/03/23 05:56:41;;;;;;;404.35;140.77;;;-1.20;99.90;;;;;;5052046;28;20379;-76
2021/03/23 05:59:14;;;;;;;410.02;139.85;;;-1.20;99.90;;;;;;5050435;28;20033;-77
2021/03/23 06:01:51;;;;;;;364.95;130.18;;;-1.10;99.90;;;;;;5050772;28;20028;-77
2021/03/23 06:04:33;;;;;;;190.25;80.25;;;-1.00;99.90;;;;;;5050856;28;20544;-78
2021/03/23 06:07:04;;;;;;;165.52;70.40;;;-1.00;99.90;;;;;;5050723;28;20017;-79
2021/03/23 06:09:33;;;;;;;152.27;69.82;;;-0.90;99.90;;;;;;5050599;28;20033;-78
2021/03/23 06:12:27;;;;;;;155.77;70.28;;;-0.80;99.90;;;;;;5050339;28;20051;-77
2021/03/23 06:15:08;;;;;;;140.45;65.18;;;-0.70;99.90;;;;;;5054859;28;20441;-78
2021/03/23 06:17:59;;;;;;;154.55;66.22;;;-0.60;99.90;;;;;;5055609;28;20037;-78
2021/03/23 06:20:42;;;;;;;143.40;64.45;;;-0.50;99.90;;;;;;5053893;28;20520;-78
2021/03/23 06:23:14;;;;;;;169.43;68.13;;;-0.40;99.90;;;;;;5054725;28;20031;-76
2021/03/23 06:25:47;;;;;;;138.15;61.95;;;-0.30;99.90;;;;;;5054672;28;20174;-78
2021/03/23 06:28:54;;;;;;;128.82;61.30;;;-0.10;99.90;;;;;;5053336;28;20418;-77
2021/03/23 06:31:49;;;;;;;118.90;55.45;;;0.00;99.90;;;;;;5053170;28;20123;-77
2021/03/23 06:34:21;;;;;;;118.30;52.20;;;0.10;99.90;;;;;;5054196;28;20028;-77
2021/03/23 06:36:49;;;;;;;118.60;51.60;;;0.20;99.90;;;;;;5049868;28;20389;-77
2021/03/23 06:39:15;;;;;;;117.85;51.85;;;0.30;99.90;;;;;;5053515;28;20024;-77
2021/03/23 06:41:56;;;;;;;117.68;53.10;;;0.40;99.90;;;;;;5054570;28;20021;-79
2021/03/23 06:44:37;;;;;;;103.25;48.17;;;0.50;99.90;;;;;;5053175;28;20124;-77
2021/03/23 06:47:04;;;;;;;112.05;49.22;;;0.60;99.90;;;;;;5053327;28;20029;-77
2021/03/23 06:49:36;;;;;;;161.20;68.15;;;0.80;99.90;;;;;;5053714;28;20124;-78
2021/03/23 06:52:21;;;;;;;90.60;39.60;;;0.80;99.90;;;;;;5051198;28;20020;-77
2021/03/23 06:55:24;;;;;;;78.90;36.58;;;1.00;98.80;;;;;;5050759;28;20040;-77
2021/03/23 06:57:49;;;;;;;97.03;44.28;;;1.00;94.10;;;;;;5048661;28;20112;-78
2021/03/23 07:00:15;;;;;;;97.43;42.13;;;1.10;92.50;;;;;;5049473;28;20107;-77
2021/03/23 07:02:43;;;;;;;98.50;41.33;;;1.20;91.60;;;;;;5053854;28;20021;-77
2021/03/23 07:05:23;;;;;;;87.05;36.67;;;1.40;90.80;;;;;;5051449;28;20063;-77
2021/03/23 07:07:53;;;;;;;86.50;38.90;;;1.50;88.80;;;;;;5049340;28;20021;-77
2021/03/23 07:10:22;;;;;;;79.80;32.70;;;1.70;89.10;;;;;;5045814;28;20043;-77
2021/03/23 07:12:49;;;;;;;73.35;33.60;;;1.80;85.30;;;;;;5050879;28;20025;-77
2021/03/23 07:15:22;;;;;;;66.75;31.40;;;2.00;84.30;;;;;;5050625;28;20032;-77
2021/03/23 07:17:52;;;;;;;135.93;49.75;;;2.00;82.80;;;;;;5048575;28;20063;-77
2021/03/23 07:20:23;;;;;;;85.15;35.17;;;2.00;82.20;;;;;;5048009;28;20017;-77
2021/03/23 07:22:52;;;;;;;86.18;35.90;;;2.00;82.30;;;;;;5054096;28;20025;-78
2021/03/23 07:25:39;;;;;;;71.40;32.28;;;2.00;80.90;;;;;;5049285;28;20100;-77
2021/03/23 07:28:20;;;;;;;84.53;34.50;;;2.00;81.40;;;;;;5048469;28;20026;-77
2021/03/23 07:31:18;;;;;;;80.15;33.40;;;2.10;80.30;;;;;;5036151;28;20041;-76
2021/03/23 07:34:00;;;;;;;73.32;34.35;;;2.10;80.40;;;;;;5053799;28;20033;-76
2021/03/23 07:36:49;;;;;;;83.97;38.03;;;2.20;80.90;;;;;;5054112;28;20021;-76
2021/03/23 07:39:21;;;;;;;58.03;25.23;;;2.30;81.90;;;;;;5052611;28;20024;-76
2021/03/23 07:41:52;;;;;;;64.05;27.25;;;2.30;79.00;;;;;;5052601;28;20083;-76
2021/03/23 07:44:31;;;;;;;66.30;27.80;;;2.40;76.40;;;;;;5052257;28;20029;-76
2021/03/23 07:47:02;;;;;;;54.88;24.05;;;2.40;76.00;;;;;;5052654;28;20029;-76
2021/03/23 07:49:31;;;;;;;49.20;21.63;;;2.50;75.30;;;;;;5054084;28;20033;-76
2021/03/23 07:52:07;;;;;;;53.08;24.20;;;2.60;76.10;;;;;;5052514;28;20025;-77
2021/03/23 07:54:37;;;;;;;48.53;21.13;;;2.60;74.10;;;;;;5053541;28;20112;-77
2021/03/23 07:57:14;;;;;;;73.28;31.35;;;2.50;74.20;;;;;;5053707;28;20099;-77
2021/03/23 08:00:14;;;;;;;47.08;19.80;;;2.50;74.60;;;;;;5053591;28;20363;-76
2021/03/23 08:03:07;;;;;;;47.42;21.42;;;2.50;74.70;;;;;;5053576;28;20071;-77
2021/03/23 08:05:45;;;;;;;55.25;22.33;;;2.60;75.70;;;;;;5052985;28;20065;-77
2021/03/23 08:08:16;;;;;;;72.30;30.20;;;2.60;75.50;;;;;;5053301;28;20029;-77
2021/03/23 08:11:19;;;;;;;38.78;18.10;;;2.80;75.00;;;;;;5047103;28;20036;-77
2021/03/23 08:14:06;;;;;;;23.73;12.75;;;2.90;73.10;;;;;;5049543;28;20486;-77
2021/03/23 08:16:55;;;;;;;225.88;88.05;;;3.00;73.50;;;;;;5049857;28;20033;-76
2021/03/23 08:19:29;;;;;;;73.07;32.42;;;3.10;73.70;;;;;;5036454;28;20520;-76
2021/03/23 08:22:03;;;;;;;180.07;71.75;;;3.20;72.30;;;;;;5049624;28;20490;-76
2021/03/23 08:24:55;;;;;;;108.90;45.53;;;3.30;72.40;;;;;;5035898;28;20030;-76
2021/03/23 08:27:48;;;;;;;111.32;48.05;;;3.50;72.60;;;;;;5041955;28;20073;-77
2021/03/23 08:30:14;;;;;;;;;;;3.60;71.50;;;;;;5049600;28;20028;-78
2021/03/23 08:32:51;;;;;;;52.63;21.77;;;3.70;70.80;;;;;;5051622;28;19916;-78
2021/03/23 08:35:56;;;;;;;66.28;28.58;;;3.80;71.00;;;;;;5043068;28;20029;-78
2021/03/23 08:38:30;;;;;;;25.20;10.55;;;3.80;70.20;;;;;;5026276;28;20383;-78
2021/03/23 08:41:02;;;;;;;20.70;10.57;;;3.70;68.70;;;;;;5032413;28;20030;-79
2021/03/23 08:43:35;;;;;;;25.60;12.27;;;3.80;69.20;;;;;;5032487;28;20029;-78
2021/03/23 08:46:05;;;;;;;22.75;9.52;;;3.80;69.60;;;;;;5048429;28;20108;-76
2021/03/23 08:48:48;;;;;;;19.83;10.32;;;3.80;69.40;;;;;;5043747;28;20028;-77
2021/03/23 08:51:15;;;;;;;20.70;10.18;;;3.80;71.10;;;;;;5051085;28;20032;-77
2021/03/23 08:53:54;;;;;;;26.00;10.05;;;3.90;70.20;;;;;;5050459;28;20027;-77
2021/03/23 08:56:50;;;;;;;21.63;9.63;;;4.10;70.80;;;;;;5050877;28;20112;-78
2021/03/23 08:59:31;;;;;;;18.88;8.73;;;4.00;69.60;;;;;;5049436;28;20029;-77
2021/03/23 09:01:58;;;;;;;14.30;8.48;;;4.10;69.50;;;;;;5052585;28;20017;-78
2021/03/23 09:04:32;;;;;;;15.13;8.18;;;4.10;69.30;;;;;;5049913;28;20037;-77
2021/03/23 09:07:17;;;;;;;23.58;10.35;;;4.00;69.50;;;;;;5050115;28;20571;-77
2021/03/23 09:09:49;;;;;;;19.05;8.45;;;4.30;71.10;;;;;;5050007;28;20526;-77
2021/03/23 09:12:35;;;;;;;25.15;10.18;;;4.30;69.80;;;;;;5050149;28;20027;-77
2021/03/23 09:15:24;;;;;;;21.60;8.45;;;4.50;69.40;;;;;;5050474;28;20064;-77
2021/03/23 09:17:52;;;;;;;15.25;8.15;;;4.60;69.30;;;;;;5051084;28;20021;-77
2021/03/23 09:20:30;;;;;;;15.40;8.43;;;4.70;69.00;;;;;;5052425;28;20120;-76
2021/03/23 09:23:15;;;;;;;19.42;9.23;;;4.70;69.10;;;;;;5051765;28;20037;-77
2021/03/23 09:25:53;;;;;;;18.58;8.50;;;4.40;68.70;;;;;;5050527;28;20116;-77
2021/03/23 09:28:31;;;;;;;22.05;10.23;;;4.50;70.10;;;;;;5052473;28;20060;-77
2021/03/23 09:31:13;;;;;;;20.88;9.38;;;4.80;70.40;;;;;;5051031;28;20045;-79
2021/03/23 09:33:42;;;;;;;14.90;8.73;;;5.10;71.20;;;;;;5051203;28;20031;-80
2021/03/23 09:36:11;;;;;;;18.10;8.73;;;5.10;69.00;;;;;;5051974;28;20025;-80
2021/03/23 09:38:43;;;;;;;18.25;8.10;;;5.00;68.50;;;;;;5052363;28;20052;-80
2021/03/23 09:41:37;;;;;;;14.65;7.40;;;4.90;68.30;;;;;;5051839;28;20021;-80
2021/03/23 09:44:06;;;;;;;23.73;9.18;;;4.90;67.80;;;;;;5050565;28;20021;-79
2021/03/23 09:46:32;;;;;;;26.25;11.75;;;4.70;67.90;;;;;;5047714;28;20025;-80
2021/03/23 09:49:22;;;;;;;21.27;9.27;;;4.60;69.30;;;;;;5053435;28;20033;-81
2021/03/23 09:52:04;;;;;;;16.00;8.40;;;4.70;70.60;;;;;;5053698;28;20021;-79
2021/03/23 09:54:32;;;;;;;16.77;7.97;;;4.70;70.50;;;;;;5054210;28;20024;-81
2021/03/23 09:57:01;;;;;;;16.50;8.02;;;4.70;71.10;;;;;;5054074;28;20509;-81
2021/03/23 09:59:32;;;;;;;19.58;7.47;;;4.80;68.80;;;;;;5055369;28;20049;-80
2021/03/23 10:02:03;;;;;;;28.52;9.32;;;4.70;68.60;;;;;;5054205;28;20021;-82
2021/03/23 10:04:33;;;;;;;18.80;8.45;;;4.90;71.00;;;;;;5054174;28;20106;-85
2021/03/23 10:06:59;;;;;;;20.33;8.95;;;5.00;70.10;;;;;;5055419;28;20020;-87
2021/03/23 10:09:31;;;;;;;16.17;8.23;;;5.10;70.20;;;;;;5055310;28;20044;-81
2021/03/23 10:11:58;;;;;;;20.85;10.18;;;5.00;68.20;;;;;;5055752;28;20059;-80
2021/03/23 10:14:30;;;;;;;19.58;7.55;;;4.90;67.20;;;;;;5054296;28;20028;-78
2021/03/23 10:17:25;;;;;;;10.75;7.07;;;4.70;67.00;;;;;;5048035;28;20482;-79
2021/03/23 10:19:57;;;;;;;17.95;7.63;;;4.70;67.00;;;;;;5046060;28;20103;-79
2021/03/23 10:22:28;;;;;;;15.55;6.72;;;4.60;67.40;;;;;;5044366;28;20075;-79
2021/03/23 10:24:55;;;;;;;14.88;7.07;;;4.60;67.90;;;;;;5050463;28;20410;-78
2021/03/23 10:27:27;;;;;;;14.77;6.78;;;4.70;68.80;;;;;;5045142;28;20052;-79
2021/03/23 10:30:15;;;;;;;12.70;6.82;;;4.90;67.60;;;;;;5047373;28;20448;-78
2021/03/23 10:32:50;;;;;;;13.30;7.38;;;5.10;67.80;;;;;;5051021;28;20024;-80
2021/03/23 10:35:29;;;;;;;9.25;5.65;;;5.10;66.80;;;;;;5054654;28;20036;-79
2021/03/23 10:38:14;;;;;;;13.45;7.22;;;5.60;66.40;;;;;;5054776;28;20133;-80
2021/03/23 10:40:41;;;;;;;13.70;7.57;;;5.50;64.90;;;;;;5054967;28;20028;-80
2021/03/23 10:43:13;;;;;;;12.98;7.28;;;5.70;64.90;;;;;;5054960;28;20505;-79
2021/03/23 10:45:43;;;;;;;11.27;6.25;;;5.80;62.90;;;;;;5054405;28;20450;-80
2021/03/23 10:48:15;;;;;;;10.38;5.93;;;6.00;63.30;;;;;;5053661;28;20108;-80
2021/03/23 10:50:43;;;;;;;15.52;6.40;;;6.00;61.90;;;;;;5054810;28;20082;-79
2021/03/23 10:53:20;;;;;;;9.45;6.20;;;5.70;63.10;;;;;;5054669;28;20025;-80
2021/03/23 10:55:49;;;;;;;12.77;6.22;;;5.50;64.40;;;;;;5053631;28;20502;-79
2021/03/23 10:58:21;;;;;;;10.75;6.70;;;5.50;64.40;;;;;;5052925;28;20095;-79
2021/03/23 11:00:50;;;;;;;7.82;5.22;;;5.50;65.00;;;;;;5053547;28;20025;-80
2021/03/23 11:03:19;;;;;;;10.52;6.20;;;5.80;64.50;;;;;;5054819;28;20028;-79
2021/03/23 11:05:50;;;;;;;13.85;8.38;;;5.70;62.60;;;;;;5053403;28;20025;-79
2021/03/23 11:08:17;;;;;;;15.90;6.55;;;5.70;62.20;;;;;;5054759;28;20070;-79
2021/03/23 11:10:44;;;;;;;15.85;9.18;;;5.70;62.90;;;;;;5053233;28;20037;-79
2021/03/23 11:13:12;;;;;;;11.60;6.88;;;5.80;63.10;;;;;;5053066;28;20386;-79
2021/03/23 11:15:44;;;;;;;12.40;6.13;;;5.80;62.50;;;;;;5053242;28;20044;-79
2021/03/23 11:18:16;;;;;;;12.50;7.00;;;6.00;62.10;;;;;;5053159;28;20052;-79
2021/03/23 11:20:43;;;;;;;9.68;6.10;;;6.00;62.10;;;;;;5054439;28;20075;-79
2021/03/23 11:23:35;;;;;;;15.00;7.00;;;6.10;62.00;;;;;;5053084;28;20032;-79
2021/03/23 11:26:01;;;;;;;13.75;6.93;;;5.90;62.30;;;;;;5054219;28;20025;-79
2021/03/23 11:28:29;;;;;;;13.38;6.53;;;5.90;62.30;;;;;;5052863;28;20017;-79
2021/03/23 11:30:56;;;;;;;10.95;7.05;;;5.90;62.20;;;;;;5052694;28;20064;-79
2021/03/23 11:33:21;;;;;;;12.90;6.80;;;6.20;62.90;;;;;;5052744;28;20037;-80
2021/03/23 11:35:49;;;;;;;11.63;7.18;;;6.30;62.00;;;;;;5052675;28;20051;-79
2021/03/23 11:38:16;;;;;;;18.73;8.27;;;6.30;62.50;;;;;;5052338;28;20021;-79
2021/03/23 11:40:43;;;;;;;14.40;7.55;;;6.50;62.60;;;;;;5052277;28;20025;-79
2021/03/23 11:43:32;;;;;;;12.25;6.35;;;6.30;61.80;;;;;;5052603;28;20025;-79
2021/03/23 11:46:04;;;;;;;13.82;7.32;;;6.00;62.50;;;;;;5043327;28;20017;-79
2021/03/23 11:48:36;;;;;;;15.15;7.68;;;6.10;62.90;;;;;;5032698;28;20033;-79
2021/03/23 11:51:03;;;;;;;11.32;7.15;;;6.30;62.30;;;;;;5032039;28;20033;-79
2021/03/23 11:53:29;;;;;;;11.35;6.07;;;6.60;60.60;;;;;;5033841;28;20032;-79
2021/03/23 11:55:55;;;;;;;14.13;7.75;;;6.70;59.50;;;;;;5033626;28;20493;-79
2021/03/23 11:58:22;;;;;;;13.43;8.10;;;6.70;59.00;;;;;;5033757;28;20021;-79
2021/03/23 12:00:48;;;;;;;9.77;6.93;;;6.60;58.50;;;;;;5032389;28;20435;-79
2021/03/23 12:03:16;;;;;;;16.40;8.35;;;6.70;59.00;;;;;;5032398;28;20048;-79
2021/03/23 12:05:42;;;;;;;23.58;9.73;;;6.90;58.80;;;;;;5046557;28;20067;-79
2021/03/23 12:08:27;;;;;;;17.73;10.95;;;7.00;59.20;;;;;;5052213;28;20543;-79
2021/03/23 12:10:59;;;;;;;16.95;8.98;;;6.90;58.40;;;;;;5050705;28;20053;-79
2021/03/23 12:13:47;;;;;;;16.73;8.93;;;6.70;57.90;;;;;;5051771;28;20466;-78
2021/03/23 12:16:26;;;;;;;20.25;8.60;;;6.50;58.00;;;;;;5050881;28;20119;-79
2021/03/23 12:18:57;;;;;;;13.32;8.60;;;6.60;58.80;;;;;;5037355;28;20036;-79
2021/03/23 12:21:25;;;;;;;23.58;10.35;;;6.60;58.90;;;;;;5051879;28;20025;-78
2021/03/23 12:23:51;;;;;;;14.80;8.82;;;6.60;59.50;;;;;;5053315;28;20021;-78
2021/03/23 12:26:17;;;;;;;18.02;9.48;;;6.40;60.80;;;;;;5053028;28;20025;-78
2021/03/23 12:28:44;;;;;;;17.88;10.90;;;6.30;61.20;;;;;;5051644;28;20021;-78
2021/03/23 12:31:10;;;;;;;15.90;9.80;;;6.50;60.00;;;;;;5053123;28;20025;-78
2021/03/23 12:33:36;;;;;;;17.23;10.10;;;6.70;59.30;;;;;;5051510;28;20032;-78
2021/03/23 12:36:03;;;;;;;12.75;8.43;;;7.10;59.90;;;;;;5052678;28;20386;-79
2021/03/23 12:38:29;;;;;;;14.88;8.57;;;6.90;58.70;;;;;;5051626;28;20486;-79
2021/03/23 12:40:55;;;;;;;13.73;8.38;;;6.80;57.80;;;;;;5052906;28;20025;-79
2021/03/23 12:43:26;;;;;;;14.20;7.95;;;6.90;58.30;;;;;;5051374;28;20024;-80
2021/03/23 12:45:52;;;;;;;14.40;8.93;;;7.10;58.10;;;;;;5051218;28;20490;-79
2021/03/23 12:48:18;;;;;;;22.77;9.07;;;7.30;57.00;;;;;;5052581;28;20032;-79
2021/03/23 12:50:44;;;;;;;14.43;8.82;;;7.40;58.10;;;;;;5052386;28;20083;-79